sensor_id;sensor_type;location;lat;lon;timestamp;temperature;humidity
8465;DHT22;4269;52.458;13.430;2022-07-18T00:02:42;18.40;99.90
8465;DHT22;4269;52.458;13.430;2022-07-18T00:19:45;18.40;99.90
8465;DHT22;4269;52.458;13.430;2022-07-18T00:27:03;18.60;99.90
8465;DHT22;4269;52.458;13.430;2022-07-18T00:34:22;18.50;99.90
8465;DHT22;4269;52.458;13.430;2022-07-18T00:36:48;18.80;99.90
8465;DHT22;4269;52.458;13.430;2022-07-18T00:41:39;18.50;99.90
8465;DHT22;4269;52.458;13.430;2022-07-18T00:44:05;18.60;99.90
8465;DHT22;4269;52.458;13.430;2022-07-18T00:51:23;18.70;99.90
8465;DHT22;4269;52.458;13.430;2022-07-18T00:53:49;18.60;99.90
8465;DHT22;4269;52.458;13.430;2022-07-18T00:56:18;18.60;99.90
8465;DHT22;4269;52.458;13.430;2022-07-18T00:58:45;18.60;99.90
8465;DHT22;4269;52.458;13.430;2022-07-18T01:01:11;18.70;99.90
8465;DHT22;4269;52.458;13.430;2022-07-18T01:03:56;18.60;99.90
8465;DHT22;4269;52.458;13.430;2022-07-18T01:06:22;18.60;99.90
8465;DHT22;4269;52.458;13.430;2022-07-18T01:08:48;18.60;99.90
8465;DHT22;4269;52.458;13.430;2022-07-18T01:11:14;18.60;99.90
8465;DHT22;4269;52.458;13.430;2022-07-18T01:13:40;18.50;99.90
8465;DHT22;4269;52.458;13.430;2022-07-18T01:16:06;19.00;99.90
8465;DHT22;4269;52.458;13.430;2022-07-18T01:18:31;18.60;99.90
8465;DHT22;4269;52.458;13.430;2022-07-18T01:20:57;18.40;99.90
8465;DHT22;4269;52.458;13.430;2022-07-18T01:23:22;18.50;99.90
8465;DHT22;4269;52.458;13.430;2022-07-18T01:28:14;18.50;99.90
8465;DHT22;4269;52.458;13.430;2022-07-18T01:30:40;18.50;99.90
8465;DHT22;4269;52.458;13.430;2022-07-18T01:33:06;18.60;99.90
8465;DHT22;4269;52.458;13.430;2022-07-18T01:35:32;18.30;99.90
8465;DHT22;4269;52.458;13.430;2022-07-18T01:37:59;18.20;99.90
8465;DHT22;4269;52.458;13.430;2022-07-18T01:40:25;18.20;99.90
8465;DHT22;4269;52.458;13.430;2022-07-18T01:42:51;18.20;99.90
8465;DHT22;4269;52.458;13.430;2022-07-18T01:47:43;18.10;99.90
8465;DHT22;4269;52.458;13.430;2022-07-18T01:50:10;18.10;99.90
8465;DHT22;4269;52.458;13.430;2022-07-18T01:55:04;18.40;99.90
8465;DHT22;4269;52.458;13.430;2022-07-18T01:57:31;17.70;99.90
8465;DHT22;4269;52.458;13.430;2022-07-18T01:59:57;17.90;99.90
8465;DHT22;4269;52.458;13.430;2022-07-18T02:02:22;17.80;99.90
8465;DHT22;4269;52.458;13.430;2022-07-18T02:04:48;17.80;99.90
8465;DHT22;4269;52.458;13.430;2022-07-18T02:07:27;17.80;99.90
8465;DHT22;4269;52.458;13.430;2022-07-18T02:09:52;17.70;99.90
8465;DHT22;4269;52.458;13.430;2022-07-18T02:12:18;17.60;99.90
8465;DHT22;4269;52.458;13.430;2022-07-18T02:14:44;17.70;99.90
8465;DHT22;4269;52.458;13.430;2022-07-18T02:17:09;17.60;99.90
8465;DHT22;4269;52.458;13.430;2022-07-18T02:22:01;17.70;99.90
8465;DHT22;4269;52.458;13.430;2022-07-18T02:29:18;17.30;99.90
8465;DHT22;4269;52.458;13.430;2022-07-18T02:31:44;17.50;99.90
8465;DHT22;4269;52.458;13.430;2022-07-18T02:36:37;17.40;99.90
8465;DHT22;4269;52.458;13.430;2022-07-18T02:39:04;17.30;99.90
8465;DHT22;4269;52.458;13.430;2022-07-18T02:43:56;17.00;99.90
8465;DHT22;4269;52.458;13.430;2022-07-18T02:46:21;17.20;99.90
8465;DHT22;4269;52.458;13.430;2022-07-18T02:48:47;17.20;99.90
8465;DHT22;4269;52.458;13.430;2022-07-18T02:53:39;16.70;99.90
8465;DHT22;4269;52.458;13.430;2022-07-18T02:56:07;17.00;99.90
8465;DHT22;4269;52.458;13.430;2022-07-18T02:58:33;17.00;99.90
8465;DHT22;4269;52.458;13.430;2022-07-18T03:00:59;17.00;99.90
8465;DHT22;4269;52.458;13.430;2022-07-18T03:03:25;17.00;99.90
8465;DHT22;4269;52.458;13.430;2022-07-18T03:05:50;16.90;99.90
8465;DHT22;4269;52.458;13.430;2022-07-18T03:08:16;17.10;99.90
8465;DHT22;4269;52.458;13.430;2022-07-18T03:10:42;17.60;99.90
8465;DHT22;4269;52.458;13.430;2022-07-18T03:17:59;16.90;99.90
8465;DHT22;4269;52.458;13.430;2022-07-18T03:20:25;16.90;99.90
8465;DHT22;4269;52.458;13.430;2022-07-18T03:22:50;17.20;99.90
8465;DHT22;4269;52.458;13.430;2022-07-18T03:27:42;16.50;99.90
8465;DHT22;4269;52.458;13.430;2022-07-18T03:30:08;16.70;99.90
8465;DHT22;4269;52.458;13.430;2022-07-18T03:37:26;16.30;99.90
8465;DHT22;4269;52.458;13.430;2022-07-18T03:42:17;16.80;99.90
8465;DHT22;4269;52.458;13.430;2022-07-18T03:49:35;17.40;99.90
8465;DHT22;4269;52.458;13.430;2022-07-18T03:52:00;17.00;99.90
8465;DHT22;4269;52.458;13.430;2022-07-18T03:54:26;16.70;99.90
8465;DHT22;4269;52.458;13.430;2022-07-18T03:59:18;16.80;99.90
8465;DHT22;4269;52.458;13.430;2022-07-18T04:01:43;16.80;99.90
8465;DHT22;4269;52.458;13.430;2022-07-18T04:09:00;17.00;99.90
8465;DHT22;4269;52.458;13.430;2022-07-18T04:11:26;16.90;99.90
8465;DHT22;4269;52.458;13.430;2022-07-18T04:13:52;17.30;99.90
8465;DHT22;4269;52.458;13.430;2022-07-18T04:16:18;17.00;99.90
8465;DHT22;4269;52.458;13.430;2022-07-18T04:18:44;17.30;99.90
8465;DHT22;4269;52.458;13.430;2022-07-18T04:21:09;17.10;99.90
8465;DHT22;4269;52.458;13.430;2022-07-18T04:23:35;16.90;99.90
8465;DHT22;4269;52.458;13.430;2022-07-18T04:26:00;17.20;99.90
8465;DHT22;4269;52.458;13.430;2022-07-18T04:30:52;17.50;99.90
8465;DHT22;4269;52.458;13.430;2022-07-18T04:35:48;17.40;99.90
8465;DHT22;4269;52.458;13.430;2022-07-18T04:40:39;17.50;99.90
8465;DHT22;4269;52.458;13.430;2022-07-18T04:43:06;17.60;99.90
8465;DHT22;4269;52.458;13.430;2022-07-18T04:45:32;17.60;99.90
8465;DHT22;4269;52.458;13.430;2022-07-18T04:48:03;17.70;99.90
8465;DHT22;4269;52.458;13.430;2022-07-18T04:53:02;17.60;99.90
8465;DHT22;4269;52.458;13.430;2022-07-18T04:55:28;18.20;99.90
8465;DHT22;4269;52.458;13.430;2022-07-18T04:57:54;17.40;99.90
8465;DHT22;4269;52.458;13.430;2022-07-18T05:00:22;18.00;99.90
8465;DHT22;4269;52.458;13.430;2022-07-18T05:02:51;18.00;99.90
8465;DHT22;4269;52.458;13.430;2022-07-18T05:05:18;18.00;99.90
8465;DHT22;4269;52.458;13.430;2022-07-18T05:07:45;18.10;99.90
8465;DHT22;4269;52.458;13.430;2022-07-18T05:10:13;18.20;99.90
8465;DHT22;4269;52.458;13.430;2022-07-18T05:12:41;18.20;99.90
8465;DHT22;4269;52.458;13.430;2022-07-18T05:15:09;18.30;99.90
8465;DHT22;4269;52.458;13.430;2022-07-18T05:17:36;18.30;99.90
8465;DHT22;4269;52.458;13.430;2022-07-18T05:20:03;18.40;99.90
8465;DHT22;4269;52.458;13.430;2022-07-18T05:24:55;17.10;99.90
8465;DHT22;4269;52.458;13.430;2022-07-18T05:27:20;18.70;99.90
8465;DHT22;4269;52.458;13.430;2022-07-18T05:29:46;18.80;99.90
8465;DHT22;4269;52.458;13.430;2022-07-18T05:32:12;18.90;99.90
8465;DHT22;4269;52.458;13.430;2022-07-18T05:37:03;19.00;99.90
8465;DHT22;4269;52.458;13.430;2022-07-18T05:39:29;19.20;99.90
8465;DHT22;4269;52.458;13.430;2022-07-18T05:46:47;19.50;99.90
8465;DHT22;4269;52.458;13.430;2022-07-18T05:49:13;19.50;99.90
8465;DHT22;4269;52.458;13.430;2022-07-18T05:54:05;19.60;99.90
8465;DHT22;4269;52.458;13.430;2022-07-18T06:06:15;19.50;99.90
8465;DHT22;4269;52.458;13.430;2022-07-18T06:11:08;19.90;99.90
8465;DHT22;4269;52.458;13.430;2022-07-18T06:13:39;20.10;99.90
8465;DHT22;4269;52.458;13.430;2022-07-18T06:16:06;20.10;99.90
8465;DHT22;4269;52.458;13.430;2022-07-18T06:18:32;20.20;99.90
8465;DHT22;4269;52.458;13.430;2022-07-18T06:23:26;20.30;99.90
8465;DHT22;4269;52.458;13.430;2022-07-18T06:25:51;20.30;99.90
8465;DHT22;4269;52.458;13.430;2022-07-18T06:28:17;20.50;99.90
8465;DHT22;4269;52.458;13.430;2022-07-18T06:30:42;20.80;99.90
8465;DHT22;4269;52.458;13.430;2022-07-18T06:35:34;20.70;99.90
8465;DHT22;4269;52.458;13.430;2022-07-18T06:38:00;20.90;99.90
8465;DHT22;4269;52.458;13.430;2022-07-18T06:40:26;21.30;99.90
8465;DHT22;4269;52.458;13.430;2022-07-18T06:47:44;21.60;99.90
8465;DHT22;4269;52.458;13.430;2022-07-18T06:50:11;21.30;99.90
8465;DHT22;4269;52.458;13.430;2022-07-18T06:52:42;21.30;99.90
8465;DHT22;4269;52.458;13.430;2022-07-18T06:55:09;21.30;99.90
8465;DHT22;4269;52.458;13.430;2022-07-18T07:00:03;21.40;99.90
8465;DHT22;4269;52.458;13.430;2022-07-18T07:04:54;21.60;99.90
8465;DHT22;4269;52.458;13.430;2022-07-18T07:14:38;21.80;99.90
8465;DHT22;4269;52.458;13.430;2022-07-18T07:17:05;21.80;99.90
8465;DHT22;4269;52.458;13.430;2022-07-18T07:21:57;21.70;99.90
8465;DHT22;4269;52.458;13.430;2022-07-18T07:24:23;21.80;99.90
8465;DHT22;4269;52.458;13.430;2022-07-18T07:26:48;21.90;99.90
8465;DHT22;4269;52.458;13.430;2022-07-18T07:29:14;21.80;99.90
8465;DHT22;4269;52.458;13.430;2022-07-18T07:43:53;22.40;99.30
8465;DHT22;4269;52.458;13.430;2022-07-18T07:46:18;22.40;99.00
8465;DHT22;4269;52.458;13.430;2022-07-18T07:51:12;22.40;97.30
8465;DHT22;4269;52.458;13.430;2022-07-18T07:58:32;22.60;98.10
8465;DHT22;4269;52.458;13.430;2022-07-18T08:00:59;22.80;96.80
8465;DHT22;4269;52.458;13.430;2022-07-18T08:05:52;22.90;95.80
8465;DHT22;4269;52.458;13.430;2022-07-18T08:10:44;23.00;94.80
8465;DHT22;4269;52.458;13.430;2022-07-18T08:23:09;23.60;93.30
8465;DHT22;4269;52.458;13.430;2022-07-18T08:25:38;23.60;92.70
8465;DHT22;4269;52.458;13.430;2022-07-18T08:28:05;23.30;91.90
8465;DHT22;4269;52.458;13.430;2022-07-18T08:37:52;23.60;90.90
8465;DHT22;4269;52.458;13.430;2022-07-18T08:45:09;23.80;86.80
8465;DHT22;4269;52.458;13.430;2022-07-18T08:50:02;23.80;86.30
8465;DHT22;4269;52.458;13.430;2022-07-18T08:52:29;23.80;86.20
8465;DHT22;4269;52.458;13.430;2022-07-18T08:54:55;23.80;87.30
8465;DHT22;4269;52.458;13.430;2022-07-18T08:57:22;23.80;86.10
8465;DHT22;4269;52.458;13.430;2022-07-18T09:02:14;23.80;84.40
8465;DHT22;4269;52.458;13.430;2022-07-18T09:04:42;24.00;83.10
8465;DHT22;4269;52.458;13.430;2022-07-18T09:07:09;24.20;82.30
8465;DHT22;4269;52.458;13.430;2022-07-18T09:09:37;25.00;83.40
8465;DHT22;4269;52.458;13.430;2022-07-18T09:12:05;24.40;85.30
8465;DHT22;4269;52.458;13.430;2022-07-18T09:14:42;24.50;84.50
8465;DHT22;4269;52.458;13.430;2022-07-18T09:19:59;24.50;84.40
8465;DHT22;4269;52.458;13.430;2022-07-18T09:22:28;24.40;81.00
8465;DHT22;4269;52.458;13.430;2022-07-18T09:25:13;24.50;81.10
8465;DHT22;4269;52.458;13.430;2022-07-18T09:27:40;24.50;81.60
8465;DHT22;4269;52.458;13.430;2022-07-18T09:30:24;25.10;81.60
8465;DHT22;4269;52.458;13.430;2022-07-18T09:33:04;25.10;78.40
8465;DHT22;4269;52.458;13.430;2022-07-18T09:38:11;25.00;77.10
8465;DHT22;4269;52.458;13.430;2022-07-18T09:43:12;25.60;73.80
8465;DHT22;4269;52.458;13.430;2022-07-18T09:45:43;25.80;71.40
8465;DHT22;4269;52.458;13.430;2022-07-18T09:48:11;25.80;69.40
8465;DHT22;4269;52.458;13.430;2022-07-18T09:50:38;25.70;68.60
8465;DHT22;4269;52.458;13.430;2022-07-18T09:53:25;25.80;68.90
8465;DHT22;4269;52.458;13.430;2022-07-18T09:56:14;25.60;67.80
8465;DHT22;4269;52.458;13.430;2022-07-18T09:58:52;25.70;67.10
8465;DHT22;4269;52.458;13.430;2022-07-18T10:01:18;25.80;64.60
8465;DHT22;4269;52.458;13.430;2022-07-18T10:03:44;26.40;64.10
8465;DHT22;4269;52.458;13.430;2022-07-18T10:06:10;26.10;62.80
8465;DHT22;4269;52.458;13.430;2022-07-18T10:08:36;26.50;62.10
8465;DHT22;4269;52.458;13.430;2022-07-18T10:11:05;26.20;62.00
8465;DHT22;4269;52.458;13.430;2022-07-18T10:13:32;25.90;66.00
8465;DHT22;4269;52.458;13.430;2022-07-18T10:15:58;26.20;62.50
8465;DHT22;4269;52.458;13.430;2022-07-18T10:18:26;26.50;61.80
8465;DHT22;4269;52.458;13.430;2022-07-18T10:20:58;26.40;60.80
8465;DHT22;4269;52.458;13.430;2022-07-18T10:26:16;26.30;62.20
8465;DHT22;4269;52.458;13.430;2022-07-18T10:31:33;26.60;61.60
8465;DHT22;4269;52.458;13.430;2022-07-18T10:36:35;26.60;63.20
8465;DHT22;4269;52.458;13.430;2022-07-18T10:39:11;26.60;62.40
8465;DHT22;4269;52.458;13.430;2022-07-18T10:57:46;26.20;60.80
8465;DHT22;4269;52.458;13.430;2022-07-18T11:00:36;26.40;60.40
8465;DHT22;4269;52.458;13.430;2022-07-18T11:03:10;26.20;60.60
8465;DHT22;4269;52.458;13.430;2022-07-18T11:05:45;26.50;59.80
8465;DHT22;4269;52.458;13.430;2022-07-18T11:21:28;27.10;57.60
8465;DHT22;4269;52.458;13.430;2022-07-18T11:24:00;27.50;57.40
8465;DHT22;4269;52.458;13.430;2022-07-18T11:26:27;27.70;56.30
8465;DHT22;4269;52.458;13.430;2022-07-18T11:29:11;27.60;56.30
8465;DHT22;4269;52.458;13.430;2022-07-18T11:34:13;27.40;56.30
8465;DHT22;4269;52.458;13.430;2022-07-18T11:36:42;27.40;55.00
8465;DHT22;4269;52.458;13.430;2022-07-18T11:41:37;27.70;54.80
8465;DHT22;4269;52.458;13.430;2022-07-18T11:46:29;27.60;55.10
8465;DHT22;4269;52.458;13.430;2022-07-18T11:49:05;27.60;54.30
8465;DHT22;4269;52.458;13.430;2022-07-18T11:51:43;27.50;54.00
8465;DHT22;4269;52.458;13.430;2022-07-18T11:54:10;27.80;54.20
8465;DHT22;4269;52.458;13.430;2022-07-18T11:56:48;27.70;52.50
8465;DHT22;4269;52.458;13.430;2022-07-18T12:04:16;28.20;52.40
8465;DHT22;4269;52.458;13.430;2022-07-18T12:09:07;28.50;51.30
8465;DHT22;4269;52.458;13.430;2022-07-18T12:11:35;28.80;51.00
8465;DHT22;4269;52.458;13.430;2022-07-18T12:16:46;29.30;50.60
8465;DHT22;4269;52.458;13.430;2022-07-18T12:21:53;29.30;48.50
8465;DHT22;4269;52.458;13.430;2022-07-18T12:24:29;29.40;51.20
8465;DHT22;4269;52.458;13.430;2022-07-18T12:27:18;29.30;49.90
8465;DHT22;4269;52.458;13.430;2022-07-18T12:32:25;30.10;48.60
8465;DHT22;4269;52.458;13.430;2022-07-18T12:35:01;30.20;49.40
8465;DHT22;4269;52.458;13.430;2022-07-18T12:37:28;30.10;47.10
8465;DHT22;4269;52.458;13.430;2022-07-18T12:39:58;30.20;47.90
8465;DHT22;4269;52.458;13.430;2022-07-18T12:42:33;29.80;46.20
8465;DHT22;4269;52.458;13.430;2022-07-18T12:45:00;29.60;48.80
8465;DHT22;4269;52.458;13.430;2022-07-18T12:49:52;29.50;48.40
8465;DHT22;4269;52.458;13.430;2022-07-18T12:52:18;29.20;48.50
8465;DHT22;4269;52.458;13.430;2022-07-18T12:54:45;29.20;47.10
8465;DHT22;4269;52.458;13.430;2022-07-18T13:06:56;30.30;45.50
8465;DHT22;4269;52.458;13.430;2022-07-18T13:09:21;30.40;44.60
8465;DHT22;4269;52.458;13.430;2022-07-18T13:11:47;30.40;45.20
8465;DHT22;4269;52.458;13.430;2022-07-18T13:14:14;29.90;45.40
8465;DHT22;4269;52.458;13.430;2022-07-18T13:16:43;29.70;45.50
8465;DHT22;4269;52.458;13.430;2022-07-18T13:21:37;29.70;46.00
8465;DHT22;4269;52.458;13.430;2022-07-18T13:24:03;29.00;46.00
8465;DHT22;4269;52.458;13.430;2022-07-18T13:26:30;29.10;45.90
8465;DHT22;4269;52.458;13.430;2022-07-18T13:28:55;29.10;46.30
8465;DHT22;4269;52.458;13.430;2022-07-18T13:31:21;28.70;46.10
8465;DHT22;4269;52.458;13.430;2022-07-18T13:41:05;29.20;47.10
8465;DHT22;4269;52.458;13.430;2022-07-18T13:43:31;29.20;45.90
8465;DHT22;4269;52.458;13.430;2022-07-18T13:45:56;29.30;46.90
8465;DHT22;4269;52.458;13.430;2022-07-18T13:48:22;29.50;46.90
8465;DHT22;4269;52.458;13.430;2022-07-18T13:50:48;29.50;46.50
8465;DHT22;4269;52.458;13.430;2022-07-18T13:53:14;29.70;46.00
8465;DHT22;4269;52.458;13.430;2022-07-18T13:58:06;30.40;44.30
8465;DHT22;4269;52.458;13.430;2022-07-18T14:00:31;30.40;44.70
8465;DHT22;4269;52.458;13.430;2022-07-18T14:05:23;30.40;44.60
8465;DHT22;4269;52.458;13.430;2022-07-18T14:07:48;30.40;44.30
8465;DHT22;4269;52.458;13.430;2022-07-18T14:10:15;30.60;44.00
8465;DHT22;4269;52.458;13.430;2022-07-18T14:15:07;31.10;43.00
8465;DHT22;4269;52.458;13.430;2022-07-18T14:17:33;31.30;43.70
8465;DHT22;4269;52.458;13.430;2022-07-18T14:19:59;31.70;43.70
8465;DHT22;4269;52.458;13.430;2022-07-18T14:22:24;31.80;42.60
8465;DHT22;4269;52.458;13.430;2022-07-18T14:24:50;32.10;41.90
8465;DHT22;4269;52.458;13.430;2022-07-18T14:27:16;32.20;42.10
8465;DHT22;4269;52.458;13.430;2022-07-18T14:29:42;32.60;40.90
8465;DHT22;4269;52.458;13.430;2022-07-18T14:34:34;32.20;40.30
8465;DHT22;4269;52.458;13.430;2022-07-18T14:39:26;32.40;40.90
8465;DHT22;4269;52.458;13.430;2022-07-18T14:41:52;33.10;40.40
8465;DHT22;4269;52.458;13.430;2022-07-18T14:44:17;33.10;40.50
8465;DHT22;4269;52.458;13.430;2022-07-18T14:46:43;36.50;36.60
8465;DHT22;4269;52.458;13.430;2022-07-18T14:49:08;36.70;36.90
8465;DHT22;4269;52.458;13.430;2022-07-18T14:51:35;37.60;33.30
8465;DHT22;4269;52.458;13.430;2022-07-18T14:54:01;38.70;31.50
8465;DHT22;4269;52.458;13.430;2022-07-18T14:56:27;40.50;28.50
8465;DHT22;4269;52.458;13.430;2022-07-18T14:58:53;40.50;28.70
8465;DHT22;4269;52.458;13.430;2022-07-18T15:01:18;40.30;28.20
8465;DHT22;4269;52.458;13.430;2022-07-18T15:03:47;39.60;28.20
8465;DHT22;4269;52.458;13.430;2022-07-18T15:06:13;39.60;28.50
8465;DHT22;4269;52.458;13.430;2022-07-18T15:08:38;37.50;28.80
8465;DHT22;4269;52.458;13.430;2022-07-18T15:11:04;39.00;28.30
8465;DHT22;4269;52.458;13.430;2022-07-18T15:13:29;39.30;27.80
8465;DHT22;4269;52.458;13.430;2022-07-18T15:15:55;39.30;28.20
8465;DHT22;4269;52.458;13.430;2022-07-18T15:20:47;38.10;27.50
8465;DHT22;4269;52.458;13.430;2022-07-18T15:23:12;35.50;30.00
8465;DHT22;4269;52.458;13.430;2022-07-18T15:25:38;34.60;31.20
8465;DHT22;4269;52.458;13.430;2022-07-18T15:28:05;33.90;32.60
8465;DHT22;4269;52.458;13.430;2022-07-18T15:30:30;33.70;32.40
8465;DHT22;4269;52.458;13.430;2022-07-18T15:32:56;33.40;32.70
8465;DHT22;4269;52.458;13.430;2022-07-18T15:37:47;33.40;33.30
8465;DHT22;4269;52.458;13.430;2022-07-18T15:40:13;33.40;33.10
8465;DHT22;4269;52.458;13.430;2022-07-18T15:42:38;34.90;31.80
8465;DHT22;4269;52.458;13.430;2022-07-18T15:45:04;34.20;31.60
8465;DHT22;4269;52.458;13.430;2022-07-18T15:52:22;34.00;31.50
8465;DHT22;4269;52.458;13.430;2022-07-18T15:54:48;33.90;32.00
8465;DHT22;4269;52.458;13.430;2022-07-18T15:57:14;34.80;31.90
8465;DHT22;4269;52.458;13.430;2022-07-18T16:02:06;32.90;33.40
8465;DHT22;4269;52.458;13.430;2022-07-18T16:04:33;32.80;33.30
8465;DHT22;4269;52.458;13.430;2022-07-18T16:06:59;33.10;32.90
8465;DHT22;4269;52.458;13.430;2022-07-18T16:11:50;35.70;30.00
8465;DHT22;4269;52.458;13.430;2022-07-18T16:14:16;36.50;29.80
8465;DHT22;4269;52.458;13.430;2022-07-18T16:16:42;37.60;28.90
8465;DHT22;4269;52.458;13.430;2022-07-18T16:19:09;38.60;29.00
8465;DHT22;4269;52.458;13.430;2022-07-18T16:21:36;36.10;29.70
8465;DHT22;4269;52.458;13.430;2022-07-18T16:24:04;35.20;30.20
8465;DHT22;4269;52.458;13.430;2022-07-18T16:26:30;35.60;31.80
8465;DHT22;4269;52.458;13.430;2022-07-18T16:31:31;35.60;30.00
8465;DHT22;4269;52.458;13.430;2022-07-18T16:33:58;35.80;29.60
8465;DHT22;4269;52.458;13.430;2022-07-18T16:36:24;35.90;30.00
8465;DHT22;4269;52.458;13.430;2022-07-18T16:38:50;35.50;29.80
8465;DHT22;4269;52.458;13.430;2022-07-18T16:41:16;35.50;29.60
8465;DHT22;4269;52.458;13.430;2022-07-18T16:43:42;35.20;30.30
8465;DHT22;4269;52.458;13.430;2022-07-18T16:46:08;35.00;31.50
8465;DHT22;4269;52.458;13.430;2022-07-18T16:48:35;34.70;33.40
8465;DHT22;4269;52.458;13.430;2022-07-18T16:51:02;34.00;31.60
8465;DHT22;4269;52.458;13.430;2022-07-18T16:53:30;32.80;32.20
8465;DHT22;4269;52.458;13.430;2022-07-18T17:00:48;31.50;35.40
8465;DHT22;4269;52.458;13.430;2022-07-18T17:03:14;31.60;35.30
8465;DHT22;4269;52.458;13.430;2022-07-18T17:08:06;31.50;35.00
8465;DHT22;4269;52.458;13.430;2022-07-18T17:10:32;31.60;35.10
8465;DHT22;4269;52.458;13.430;2022-07-18T17:12:58;31.60;36.00
8465;DHT22;4269;52.458;13.430;2022-07-18T17:15:24;31.50;36.00
8465;DHT22;4269;52.458;13.430;2022-07-18T17:17:49;32.00;37.60
8465;DHT22;4269;52.458;13.430;2022-07-18T17:20:15;31.90;36.40
8465;DHT22;4269;52.458;13.430;2022-07-18T17:22:43;32.00;35.70
8465;DHT22;4269;52.458;13.430;2022-07-18T17:25:09;31.90;37.80
8465;DHT22;4269;52.458;13.430;2022-07-18T17:27:37;33.50;36.80
8465;DHT22;4269;52.458;13.430;2022-07-18T17:30:03;35.10;32.50
8465;DHT22;4269;52.458;13.430;2022-07-18T17:32:30;34.70;31.40
8465;DHT22;4269;52.458;13.430;2022-07-18T17:35:00;34.20;32.10
8465;DHT22;4269;52.458;13.430;2022-07-18T17:37:26;34.20;32.10
8465;DHT22;4269;52.458;13.430;2022-07-18T17:39:51;33.00;32.70
8465;DHT22;4269;52.458;13.430;2022-07-18T17:42:19;32.40;35.20
8465;DHT22;4269;52.458;13.430;2022-07-18T17:47:12;31.80;37.00
8465;DHT22;4269;52.458;13.430;2022-07-18T17:49:39;31.50;36.90
8465;DHT22;4269;52.458;13.430;2022-07-18T17:52:06;31.10;38.30
8465;DHT22;4269;52.458;13.430;2022-07-18T17:57:54;30.10;39.60
8465;DHT22;4269;52.458;13.430;2022-07-18T18:00:20;30.20;38.10
8465;DHT22;4269;52.458;13.430;2022-07-18T18:02:45;30.00;38.90
8465;DHT22;4269;52.458;13.430;2022-07-18T18:05:16;29.80;38.50
8465;DHT22;4269;52.458;13.430;2022-07-18T18:10:08;29.90;39.10
8465;DHT22;4269;52.458;13.430;2022-07-18T18:12:34;29.70;38.10
8465;DHT22;4269;52.458;13.430;2022-07-18T18:22:18;29.50;39.50
8465;DHT22;4269;52.458;13.430;2022-07-18T18:39:32;28.40;41.80
8465;DHT22;4269;52.458;13.430;2022-07-18T18:41:59;28.20;42.50
8465;DHT22;4269;52.458;13.430;2022-07-18T18:44:26;28.00;42.60
8465;DHT22;4269;52.458;13.430;2022-07-18T18:51:48;27.70;43.40
8465;DHT22;4269;52.458;13.430;2022-07-18T18:54:15;27.40;44.10
8465;DHT22;4269;52.458;13.430;2022-07-18T18:59:11;27.20;44.40
8465;DHT22;4269;52.458;13.430;2022-07-18T19:04:04;27.00;45.60
8465;DHT22;4269;52.458;13.430;2022-07-18T19:16:15;26.70;47.50
8465;DHT22;4269;52.458;13.430;2022-07-18T19:18:47;26.40;50.90
8465;DHT22;4269;52.458;13.430;2022-07-18T19:23:40;26.20;51.60
8465;DHT22;4269;52.458;13.430;2022-07-18T19:38:22;25.40;52.30
8465;DHT22;4269;52.458;13.430;2022-07-18T19:40:48;25.40;52.90
8465;DHT22;4269;52.458;13.430;2022-07-18T19:43:14;25.30;52.70
8465;DHT22;4269;52.458;13.430;2022-07-18T19:45:43;25.20;53.90
8465;DHT22;4269;52.458;13.430;2022-07-18T19:48:10;25.10;54.50
8465;DHT22;4269;52.458;13.430;2022-07-18T19:55:28;25.10;54.90
8465;DHT22;4269;52.458;13.430;2022-07-18T20:05:13;24.80;54.80
8465;DHT22;4269;52.458;13.430;2022-07-18T20:10:06;24.70;56.40
8465;DHT22;4269;52.458;13.430;2022-07-18T20:19:50;24.40;58.00
8465;DHT22;4269;52.458;13.430;2022-07-18T20:22:17;24.40;58.20
8465;DHT22;4269;52.458;13.430;2022-07-18T20:29:35;24.30;58.40
8465;DHT22;4269;52.458;13.430;2022-07-18T20:32:01;24.30;58.40
8465;DHT22;4269;52.458;13.430;2022-07-18T20:34:28;23.90;59.50
8465;DHT22;4269;52.458;13.430;2022-07-18T20:41:48;24.00;60.30
8465;DHT22;4269;52.458;13.430;2022-07-18T20:46:40;24.00;62.10
8465;DHT22;4269;52.458;13.430;2022-07-18T20:51:32;23.70;62.10
8465;DHT22;4269;52.458;13.430;2022-07-18T21:03:42;23.80;65.80
8465;DHT22;4269;52.458;13.430;2022-07-18T21:11:00;23.50;64.70
8465;DHT22;4269;52.458;13.430;2022-07-18T21:15:51;21.70;62.10
8465;DHT22;4269;52.458;13.430;2022-07-18T21:20:44;23.50;65.90
8465;DHT22;4269;52.458;13.430;2022-07-18T21:23:09;23.50;65.10
8465;DHT22;4269;52.458;13.430;2022-07-18T21:25:35;23.20;65.90
8465;DHT22;4269;52.458;13.430;2022-07-18T21:28:01;23.40;65.40
8465;DHT22;4269;52.458;13.430;2022-07-18T21:30:26;23.40;65.40
8465;DHT22;4269;52.458;13.430;2022-07-18T21:32:52;23.20;66.30
8465;DHT22;4269;52.458;13.430;2022-07-18T21:35:18;23.40;64.50
8465;DHT22;4269;52.458;13.430;2022-07-18T21:37:46;23.70;65.70
8465;DHT22;4269;52.458;13.430;2022-07-18T21:40:14;23.30;66.60
8465;DHT22;4269;52.458;13.430;2022-07-18T21:42:40;23.70;65.30
8465;DHT22;4269;52.458;13.430;2022-07-18T21:45:07;23.30;65.30
8465;DHT22;4269;52.458;13.430;2022-07-18T21:49:58;23.30;67.00
8465;DHT22;4269;52.458;13.430;2022-07-18T21:52:24;23.20;66.10
8465;DHT22;4269;52.458;13.430;2022-07-18T21:59:49;23.30;69.00
8465;DHT22;4269;52.458;13.430;2022-07-18T22:07:07;23.10;65.40
8465;DHT22;4269;52.458;13.430;2022-07-18T22:09:33;23.00;66.20
8465;DHT22;4269;52.458;13.430;2022-07-18T22:11:58;22.70;65.00
8465;DHT22;4269;52.458;13.430;2022-07-18T22:21:42;23.20;66.90
8465;DHT22;4269;52.458;13.430;2022-07-18T22:26:35;22.90;65.40
8465;DHT22;4269;52.458;13.430;2022-07-18T22:31:26;22.70;67.80
8465;DHT22;4269;52.458;13.430;2022-07-18T22:33:52;22.80;65.70
8465;DHT22;4269;52.458;13.430;2022-07-18T22:36:18;22.80;67.30
8465;DHT22;4269;52.458;13.430;2022-07-18T22:38:44;22.80;66.30
8465;DHT22;4269;52.458;13.430;2022-07-18T22:46:02;22.50;67.70
8465;DHT22;4269;52.458;13.430;2022-07-18T22:48:28;22.70;68.30
8465;DHT22;4269;52.458;13.430;2022-07-18T22:53:20;22.60;69.80
8465;DHT22;4269;52.458;13.430;2022-07-18T22:55:46;22.60;69.30
8465;DHT22;4269;52.458;13.430;2022-07-18T22:58:12;22.60;70.30
8465;DHT22;4269;52.458;13.430;2022-07-18T23:05:29;18.60;68.80
8465;DHT22;4269;52.458;13.430;2022-07-18T23:07:58;22.20;71.80
8465;DHT22;4269;52.458;13.430;2022-07-18T23:10:26;22.10;72.60
8465;DHT22;4269;52.458;13.430;2022-07-18T23:12:53;22.30;74.90
8465;DHT22;4269;52.458;13.430;2022-07-18T23:15:19;22.00;75.30
8465;DHT22;4269;52.458;13.430;2022-07-18T23:17:45;21.90;76.00
8465;DHT22;4269;52.458;13.430;2022-07-18T23:25:04;21.80;76.30
8465;DHT22;4269;52.458;13.430;2022-07-18T23:29:57;21.70;78.60
8465;DHT22;4269;52.458;13.430;2022-07-18T23:32:23;21.60;80.00
8465;DHT22;4269;52.458;13.430;2022-07-18T23:34:49;21.60;81.50
8465;DHT22;4269;52.458;13.430;2022-07-18T23:37:15;21.60;82.40
8465;DHT22;4269;52.458;13.430;2022-07-18T23:42:06;21.50;83.20
8465;DHT22;4269;52.458;13.430;2022-07-18T23:44:32;21.40;81.60
8465;DHT22;4269;52.458;13.430;2022-07-18T23:49:29;21.40;84.40
8465;DHT22;4269;52.458;13.430;2022-07-18T23:51:55;21.30;86.30